createdAt,value
2019-04-22T00:00:01.032Z,7.50
2019-04-22T00:02:55.795Z,7.40
2019-04-22T00:06:01.107Z,7.40
2019-04-22T00:08:55.886Z,7.30
2019-04-22T00:11:46.686Z,7.10
2019-04-22T00:14:28.074Z,7.10
2019-04-22T00:17:30.398Z,7.00
2019-04-22T00:20:14.468Z,7.00
2019-04-22T00:23:09.826Z,7.00
2019-04-22T00:25:57.147Z,7.10
2019-04-22T00:28:43.843Z,7.10
2019-04-22T00:31:40.667Z,7.00
2019-04-22T00:34:34.147Z,7.00
2019-04-22T00:37:28.653Z,7.00
2019-04-22T00:40:19.762Z,7.00
2019-04-22T00:43:13.830Z,6.90
2019-04-22T00:45:57.859Z,6.80
2019-04-22T00:49:05.806Z,6.60
2019-04-22T00:51:44.707Z,6.50
2019-04-22T00:54:30.986Z,6.50
2019-04-22T00:57:15.680Z,6.40
2019-04-22T01:00:05.444Z,6.20
2019-04-22T01:03:01.626Z,6.20
2019-04-22T01:05:51.399Z,6.20
2019-04-22T01:08:45.221Z,6.20
2019-04-22T01:11:29.099Z,6.20
2019-04-22T01:14:13.110Z,6.20
2019-04-22T01:17:09.317Z,6.20
2019-04-22T01:19:58.621Z,6.20
2019-04-22T01:22:43.854Z,6.20
2019-04-22T01:25:29.458Z,6.10
2019-04-22T01:28:18.048Z,5.90
2019-04-22T01:31:01.981Z,5.90
2019-04-22T01:33:48.208Z,5.90
2019-04-22T01:36:55.589Z,5.80
2019-04-22T01:39:49.908Z,5.70
2019-04-22T01:42:43.243Z,5.70
2019-04-22T01:45:26.448Z,5.70
2019-04-22T01:48:20.609Z,5.60
2019-04-22T01:51:00.895Z,5.50
2019-04-22T01:53:58.446Z,5.60
2019-04-22T01:56:51.350Z,5.50
2019-04-22T01:59:25.887Z,5.50
2019-04-22T02:02:28.035Z,5.30
2019-04-22T02:08:04.389Z,5.30
2019-04-22T02:10:54.947Z,5.30
2019-04-22T02:13:43.045Z,5.20
2019-04-22T02:16:34.289Z,5.20
2019-04-22T02:19:37.171Z,5.10
2019-04-22T02:22:17.659Z,5.10
2019-04-22T02:25:09.392Z,5.10
2019-04-22T02:27:54.559Z,4.90
2019-04-22T02:31:04.975Z,4.80
2019-04-22T02:34:01.251Z,4.80
2019-04-22T02:39:17.588Z,4.90
2019-04-22T02:42:10.627Z,4.80
2019-04-22T02:47:54.130Z,4.80
2019-04-22T02:50:43.432Z,4.80
2019-04-22T02:54:02.631Z,4.80
2019-04-22T03:04:53.455Z,4.60
2019-04-22T03:07:55.966Z,4.60
2019-04-22T03:13:46.967Z,4.50
2019-04-22T03:16:33.230Z,4.50
2019-04-22T03:21:54.450Z,4.60
2019-04-22T03:27:37.249Z,4.50
2019-04-22T03:33:29.378Z,4.30
2019-04-22T03:36:25.949Z,4.40
2019-04-22T03:41:57.324Z,4.20
2019-04-22T03:50:20.650Z,4.00
2019-04-22T03:53:09.028Z,4.00
2019-04-22T03:56:10.793Z,4.00
2019-04-22T03:58:47.912Z,3.90
2019-04-22T04:01:59.350Z,4.00
2019-04-22T04:04:32.895Z,3.90
2019-04-22T04:07:32.437Z,3.80
2019-04-22T04:10:15.120Z,3.70
2019-04-22T04:12:59.925Z,3.70
2019-04-22T04:15:38.769Z,3.80
2019-04-22T04:18:39.220Z,3.80
2019-04-22T04:27:39.881Z,3.90
2019-04-22T04:30:05.561Z,3.80
2019-04-22T04:32:52.637Z,3.80
2019-04-22T04:38:20.794Z,3.80
2019-04-22T04:41:23.098Z,3.80
2019-04-22T04:46:58.484Z,3.80
2019-04-22T04:49:54.557Z,3.80
2019-04-22T04:58:36.875Z,3.90
2019-04-22T05:01:08.134Z,4.00
2019-04-22T05:09:26.033Z,4.30
2019-04-22T05:15:11.723Z,4.40
2019-04-22T05:17:58.129Z,4.50
2019-04-22T05:21:02.916Z,4.50
2019-04-22T05:23:39.433Z,4.50
2019-04-22T05:26:31.308Z,4.60
2019-04-22T05:29:11.431Z,4.70
2019-04-22T05:32:01.444Z,4.80
2019-04-22T05:35:12.086Z,4.70
2019-04-22T05:37:41.575Z,4.90
2019-04-22T05:43:21.497Z,5.30
2019-04-22T05:46:09.492Z,5.50
2019-04-22T05:49:03.252Z,5.70
2019-04-22T05:52:05.223Z,5.90
2019-04-22T05:54:38.734Z,6.10
2019-04-22T05:57:26.613Z,6.30
2019-04-22T06:00:22.428Z,6.50
2019-04-22T06:03:20.761Z,6.70
2019-04-22T06:05:58.398Z,6.90
2019-04-22T06:08:51.252Z,7.10
2019-04-22T06:11:36.219Z,7.30
2019-04-22T06:14:34.276Z,7.60
2019-04-22T06:17:25.574Z,7.80
2019-04-22T06:20:15.373Z,8.10
2019-04-22T06:23:13.040Z,8.30
2019-04-22T06:26:21.965Z,8.60
2019-04-22T06:28:48.231Z,8.80
2019-04-22T06:32:03.416Z,9.10
2019-04-22T06:40:16.005Z,9.70
2019-04-22T06:43:03.162Z,10.00
2019-04-22T06:45:43.840Z,10.20
2019-04-22T06:48:36.176Z,10.40
2019-04-22T06:51:33.062Z,10.70
2019-04-22T06:54:23.440Z,10.90
2019-04-22T06:57:25.547Z,11.20
2019-04-22T07:00:00.353Z,11.40
2019-04-22T07:03:10.203Z,11.60
2019-04-22T07:05:41.342Z,11.80
2019-04-22T07:09:02.374Z,12.00
2019-04-22T07:11:12.474Z,12.30
2019-04-22T07:14:04.218Z,12.50
2019-04-22T07:17:00.876Z,12.70
2019-04-22T07:19:42.330Z,12.90
2019-04-22T07:22:38.357Z,13.10
2019-04-22T07:25:24.980Z,13.30
2019-04-22T07:28:15.658Z,13.50
2019-04-22T07:31:10.392Z,13.80
2019-04-22T07:34:03.738Z,14.00
2019-04-22T07:39:44.239Z,14.50
2019-04-22T07:42:34.743Z,14.70
2019-04-22T07:45:17.829Z,15.00
2019-04-22T07:48:22.561Z,15.20
2019-04-22T07:51:13.547Z,15.40
2019-04-22T07:53:53.994Z,15.60
2019-04-22T07:56:36.717Z,15.80
2019-04-22T07:59:30.705Z,16.00
2019-04-22T08:02:26.206Z,16.20
2019-04-22T08:05:28.541Z,16.40
2019-04-22T08:08:11.149Z,16.60
2019-04-22T08:10:48.468Z,16.80
2019-04-22T08:13:34.289Z,17.00
2019-04-22T08:16:26.332Z,17.10
2019-04-22T08:19:22.798Z,17.20
2019-04-22T08:22:23.898Z,17.30
2019-04-22T08:27:54.997Z,17.70
2019-04-22T08:30:41.417Z,17.80
2019-04-22T08:33:29.517Z,17.90
2019-04-22T08:36:18.111Z,18.10
2019-04-22T08:39:09.442Z,18.10
2019-04-22T08:41:57.413Z,18.40
2019-04-22T08:47:44.877Z,18.60
2019-04-22T08:50:26.746Z,18.60
2019-04-22T08:53:15.646Z,18.70
2019-04-22T08:56:20.159Z,18.90
2019-04-22T08:58:57.271Z,19.00
2019-04-22T09:01:37.664Z,19.00
2019-04-22T09:04:31.157Z,19.10
2019-04-22T09:10:15.166Z,19.30
2019-04-22T09:15:48.797Z,19.60
2019-04-22T09:18:45.896Z,19.70
2019-04-22T09:21:36.143Z,19.60
2019-04-22T09:24:23.289Z,19.80
2019-04-22T09:27:23.355Z,19.80
2019-04-22T09:29:59.685Z,19.70
2019-04-22T09:32:54.231Z,19.70
2019-04-22T09:35:45.368Z,19.80
2019-04-22T09:38:37.801Z,20.00
2019-04-22T09:41:25.000Z,20.10
2019-04-22T09:44:07.849Z,20.10
2019-04-22T09:46:59.944Z,20.30
2019-04-22T09:49:56.708Z,20.30
2019-04-22T09:52:46.005Z,20.50
2019-04-22T09:55:28.470Z,20.60
2019-04-22T09:58:26.545Z,20.60
2019-04-22T10:01:27.896Z,20.70
2019-04-22T10:04:00.978Z,20.80
2019-04-22T10:06:45.755Z,20.90
2019-04-22T10:10:03.474Z,21.10
2019-04-22T10:12:36.918Z,21.20
2019-04-22T10:15:23.041Z,21.10
2019-04-22T10:18:14.682Z,21.20
2019-04-22T10:21:02.104Z,21.30
2019-04-22T10:23:54.692Z,21.20
2019-04-22T10:26:46.900Z,21.30
2019-04-22T10:29:38.620Z,21.40
2019-04-22T10:32:20.592Z,21.30
2019-04-22T10:35:17.127Z,21.30
2019-04-22T10:38:02.160Z,21.30
2019-04-22T10:40:52.562Z,21.40
2019-04-22T10:43:41.239Z,21.40
2019-04-22T10:46:34.004Z,21.50
2019-04-22T10:49:22.655Z,21.50
2019-04-22T10:52:10.861Z,21.50
2019-04-22T10:54:59.160Z,21.60
2019-04-22T10:57:48.628Z,21.70
2019-04-22T11:00:37.659Z,21.80
2019-04-22T11:03:28.432Z,22.00
2019-04-22T11:06:17.160Z,22.10
2019-04-22T11:09:08.421Z,22.10
2019-04-22T11:12:04.396Z,22.00
2019-04-22T11:14:47.678Z,22.20
2019-04-22T11:17:37.668Z,22.40
2019-04-22T11:20:26.374Z,22.40
2019-04-22T11:23:18.640Z,22.40
2019-04-22T11:26:08.168Z,22.60
2019-04-22T11:28:56.066Z,22.60
2019-04-22T11:31:48.252Z,22.40
2019-04-22T11:34:37.600Z,22.30
2019-04-22T11:37:25.518Z,22.20
2019-04-22T11:40:22.264Z,22.20
2019-04-22T11:43:05.797Z,22.30
2019-04-22T11:45:55.670Z,22.60
2019-04-22T11:48:43.335Z,22.80
2019-04-22T11:51:31.953Z,22.70
2019-04-22T11:54:21.046Z,22.90
2019-04-22T11:57:10.659Z,22.60
2019-04-22T12:00:00.895Z,22.60
2019-04-22T12:02:49.383Z,22.90
2019-04-22T12:05:37.697Z,22.90
2019-04-22T12:08:26.930Z,22.80
2019-04-22T12:11:16.588Z,22.70
2019-04-22T12:14:06.690Z,22.70
2019-04-22T12:16:55.407Z,22.70
2019-04-22T12:19:46.389Z,22.80
2019-04-22T12:22:35.840Z,22.70
2019-04-22T12:25:34.735Z,22.80
2019-04-22T12:28:21.267Z,22.90
2019-04-22T12:31:09.639Z,22.90
2019-04-22T12:33:59.198Z,22.90
2019-04-22T12:36:48.757Z,22.80
2019-04-22T12:39:39.244Z,23.00
2019-04-22T12:42:31.273Z,23.00
2019-04-22T12:45:20.492Z,23.00
2019-04-22T12:48:10.143Z,23.20
2019-04-22T12:50:58.673Z,23.20
2019-04-22T12:53:46.945Z,23.40
2019-04-22T12:56:35.506Z,23.40
2019-04-22T12:59:23.752Z,23.30
2019-04-22T13:02:13.378Z,23.10
2019-04-22T13:05:01.584Z,23.20
2019-04-22T13:07:49.874Z,23.30
2019-04-22T13:10:47.090Z,23.40
2019-04-22T13:13:28.799Z,23.70
2019-04-22T13:16:17.502Z,23.80
2019-04-22T13:19:11.317Z,23.80
2019-04-22T13:21:56.605Z,23.80
2019-04-22T13:24:45.741Z,23.60
2019-04-22T13:27:35.137Z,23.40
2019-04-22T13:30:23.527Z,23.30
2019-04-22T13:33:12.635Z,23.40
2019-04-22T13:36:01.690Z,23.50
2019-04-22T13:38:51.284Z,23.40
2019-04-22T13:41:46.407Z,23.30
2019-04-22T13:44:31.424Z,23.50
2019-04-22T13:47:34.740Z,23.50
2019-04-22T13:51:03.901Z,23.30
2019-04-22T13:53:45.066Z,23.20
2019-04-22T13:56:16.904Z,23.30
2019-04-22T13:58:57.803Z,23.30
2019-04-22T14:01:54.643Z,23.40
2019-04-22T14:04:43.789Z,23.40
2019-04-22T14:07:32.807Z,23.30
2019-04-22T14:10:22.701Z,23.20
2019-04-22T14:13:12.139Z,23.30
2019-04-22T14:16:01.345Z,23.30
2019-04-22T14:18:49.862Z,23.50
2019-04-22T14:21:46.983Z,23.40
2019-04-22T14:24:34.535Z,23.50
2019-04-22T14:27:34.681Z,23.50
2019-04-22T14:30:14.869Z,23.40
2019-04-22T14:33:04.811Z,23.50
2019-04-22T14:35:53.159Z,23.50
2019-04-22T14:38:42.000Z,23.40
2019-04-22T14:41:41.514Z,23.50
2019-04-22T14:47:31.628Z,23.40
2019-04-22T14:50:27.030Z,23.40
2019-04-22T14:53:07.827Z,23.60
2019-04-22T14:55:40.008Z,23.50
2019-04-22T14:58:28.799Z,23.40
2019-04-22T15:01:18.980Z,23.30
2019-04-22T15:04:08.856Z,23.30
2019-04-22T15:06:59.084Z,23.30
2019-04-22T15:09:47.994Z,23.40
2019-04-22T15:12:44.556Z,23.50
2019-04-22T15:15:52.892Z,23.50
2019-04-22T15:18:49.450Z,23.50
2019-04-22T15:21:38.660Z,23.70
2019-04-22T15:24:27.630Z,23.70
2019-04-22T15:27:18.444Z,23.50
2019-04-22T15:30:07.636Z,23.40
2019-04-22T15:32:57.096Z,23.40
2019-04-22T15:35:47.247Z,23.50
2019-04-22T15:38:36.511Z,23.40
2019-04-22T15:41:28.695Z,23.10
2019-04-22T15:44:17.737Z,22.90
2019-04-22T15:47:07.017Z,22.90
2019-04-22T15:49:56.169Z,22.80
2019-04-22T15:52:49.669Z,22.80
2019-04-22T15:55:36.871Z,22.90
2019-04-22T15:58:25.828Z,23.00
2019-04-22T16:01:21.710Z,23.00
2019-04-22T16:04:04.891Z,23.00
2019-04-22T16:06:54.749Z,23.20
2019-04-22T16:09:43.509Z,23.40
2019-04-22T16:12:39.319Z,23.30
2019-04-22T16:15:22.393Z,23.10
2019-04-22T16:18:12.986Z,23.00
2019-04-22T16:21:04.909Z,22.80
2019-04-22T16:24:18.193Z,22.70
2019-04-22T16:27:16.564Z,22.80
2019-04-22T16:30:07.514Z,23.10
2019-04-22T16:33:01.625Z,23.30
2019-04-22T16:35:50.867Z,23.40
2019-04-22T16:38:40.615Z,23.50
2019-04-22T16:41:28.984Z,23.40
2019-04-22T16:44:18.637Z,23.60
2019-04-22T16:47:09.918Z,23.50
2019-04-22T16:49:59.491Z,23.90
2019-04-22T16:52:48.218Z,24.10
2019-04-22T16:55:36.996Z,24.50
2019-04-22T16:58:25.236Z,24.40
2019-04-22T17:01:52.542Z,24.60
2019-04-22T17:04:50.833Z,24.80
2019-04-22T17:07:42.475Z,24.70
2019-04-22T17:10:31.486Z,24.30
2019-04-22T17:13:25.370Z,24.10
2019-04-22T17:16:13.907Z,24.00
2019-04-22T17:19:02.632Z,23.70
2019-04-22T17:21:50.819Z,23.40
2019-04-22T17:24:39.643Z,23.30
2019-04-22T17:27:28.787Z,23.10
2019-04-22T17:30:18.093Z,22.90
2019-04-22T17:33:06.513Z,22.60
2019-04-22T17:35:57.041Z,22.30
2019-04-22T17:38:55.092Z,21.90
2019-04-22T17:41:55.747Z,21.60
2019-04-22T17:44:58.849Z,21.10
2019-04-22T17:47:39.700Z,20.80
2019-04-22T17:50:37.917Z,20.60
2019-04-22T17:56:24.520Z,20.00
2019-04-22T17:59:02.220Z,19.90
2019-04-22T18:01:52.322Z,19.70
2019-04-22T18:04:29.092Z,19.50
2019-04-22T18:07:45.764Z,19.30
2019-04-22T18:13:23.831Z,18.90
2019-04-22T18:16:07.086Z,18.80
2019-04-22T18:18:55.814Z,18.70
2019-04-22T18:21:42.318Z,18.60
2019-04-22T18:24:21.949Z,18.50
2019-04-22T18:27:36.016Z,18.40
2019-04-22T18:30:11.611Z,18.30
2019-04-22T18:33:02.805Z,18.10
2019-04-22T18:35:51.554Z,18.00
2019-04-22T18:38:52.877Z,18.00
2019-04-22T18:41:30.417Z,17.90
2019-04-22T18:44:22.609Z,17.80
2019-04-22T18:47:10.236Z,17.80
2019-04-22T18:49:55.432Z,17.60
2019-04-22T18:53:16.090Z,17.60
2019-04-22T18:56:02.068Z,17.50
2019-04-22T18:58:47.557Z,17.40
2019-04-22T19:01:25.676Z,17.40
2019-04-22T19:04:24.660Z,17.30
2019-04-22T19:07:35.273Z,17.30
2019-04-22T19:10:30.791Z,17.20
2019-04-22T19:13:34.620Z,17.20
2019-04-22T19:16:17.212Z,17.10
2019-04-22T19:18:46.054Z,17.10
2019-04-22T19:21:39.370Z,17.00
2019-04-22T19:24:22.920Z,16.90
2019-04-22T19:27:15.582Z,16.80
2019-04-22T19:30:10.495Z,16.80
2019-04-22T19:33:02.890Z,16.70
2019-04-22T19:35:43.528Z,16.70
2019-04-22T19:38:28.650Z,16.60
2019-04-22T19:41:35.483Z,16.60
2019-04-22T19:44:20.175Z,16.50
2019-04-22T19:47:26.825Z,16.50
2019-04-22T19:50:09.397Z,16.40
2019-04-22T19:52:43.428Z,16.40
2019-04-22T19:55:39.045Z,16.30
2019-04-22T19:58:20.110Z,16.30
2019-04-22T20:01:31.807Z,16.20
2019-04-22T20:04:46.245Z,16.10
2019-04-22T20:07:40.587Z,16.10
2019-04-22T20:10:36.982Z,16.00
2019-04-22T20:13:31.102Z,16.00
2019-04-22T20:16:03.417Z,16.00
2019-04-22T20:19:06.958Z,15.90
2019-04-22T20:21:53.434Z,15.90
2019-04-22T20:24:28.177Z,15.80
2019-04-22T20:27:40.531Z,15.80
2019-04-22T20:30:23.549Z,15.70
2019-04-22T20:33:12.001Z,15.70
2019-04-22T20:36:12.826Z,15.60
2019-04-22T20:38:50.584Z,15.60
2019-04-22T20:41:36.565Z,15.50
2019-04-22T20:44:37.828Z,15.50
2019-04-22T20:47:19.207Z,15.40
2019-04-22T20:50:15.709Z,15.40
2019-04-22T20:53:06.918Z,15.30
2019-04-22T20:55:52.424Z,15.30
2019-04-22T20:58:42.219Z,15.30
2019-04-22T21:01:28.568Z,15.20
2019-04-22T21:04:09.034Z,15.20
2019-04-22T21:07:05.082Z,15.20
2019-04-22T21:09:59.371Z,15.10
2019-04-22T21:12:40.001Z,15.00
2019-04-22T21:15:44.417Z,15.00
2019-04-22T21:18:24.769Z,15.00
2019-04-22T21:21:19.937Z,14.90
2019-04-22T21:23:59.420Z,14.90
2019-04-22T21:26:58.439Z,14.80
2019-04-22T21:29:37.598Z,14.80
2019-04-22T21:32:34.213Z,14.80
2019-04-22T21:35:40.450Z,14.70
2019-04-22T21:38:25.239Z,14.70
2019-04-22T21:41:08.496Z,14.60
2019-04-22T21:44:01.004Z,14.50
2019-04-22T21:47:01.003Z,14.50
2019-04-22T21:49:45.888Z,14.40
2019-04-22T21:52:35.596Z,14.40
2019-04-22T21:55:24.164Z,14.30
2019-04-22T21:58:44.651Z,14.20
2019-04-22T22:01:47.481Z,14.20
2019-04-22T22:04:27.771Z,14.10
2019-04-22T22:07:05.668Z,14.10
2019-04-22T22:10:08.959Z,14.10
2019-04-22T22:13:03.368Z,14.10
2019-04-22T22:15:47.611Z,14.00
2019-04-22T22:18:30.024Z,14.00
2019-04-22T22:21:42.878Z,14.00
2019-04-22T22:24:18.512Z,13.90
2019-04-22T22:27:10.378Z,13.90
2019-04-22T22:30:14.943Z,13.80
2019-04-22T22:32:47.793Z,13.80
2019-04-22T22:35:36.115Z,13.80
2019-04-22T22:38:24.035Z,13.80
2019-04-22T22:40:54.087Z,13.70
2019-04-22T22:43:48.645Z,13.70
2019-04-22T22:46:44.158Z,13.70
2019-04-22T22:49:50.269Z,13.70
2019-04-22T22:55:21.743Z,13.60
2019-04-22T22:58:17.677Z,13.50
2019-04-22T23:01:02.155Z,13.50
2019-04-22T23:04:02.595Z,13.50
2019-04-22T23:06:46.796Z,13.50
2019-04-22T23:09:30.686Z,13.50
2019-04-22T23:15:08.876Z,13.40
2019-04-22T23:17:43.665Z,13.30
2019-04-22T23:20:37.582Z,13.20
2019-04-22T23:23:39.475Z,13.10
2019-04-22T23:26:35.983Z,13.00
2019-04-22T23:29:34.327Z,13.00
2019-04-22T23:32:25.884Z,13.00
2019-04-22T23:35:33.760Z,12.90
2019-04-22T23:38:24.134Z,12.90
2019-04-22T23:44:25.327Z,12.80
2019-04-22T23:47:26.065Z,12.70
2019-04-22T23:50:29.445Z,12.70
2019-04-22T23:54:00.920Z,12.60
2019-04-22T23:56:32.242Z,12.60
2019-04-22T23:59:38.294Z,12.60
